createdAt,value
2023-05-20T00:01:02.059Z,2.65
2023-05-20T00:03:29.725Z,2.90
2023-05-20T00:05:56.583Z,2.63
2023-05-20T00:08:23.225Z,2.65
2023-05-20T00:10:49.883Z,3.05
2023-05-20T00:13:16.512Z,2.72
2023-05-20T00:15:43.185Z,2.65
2023-05-20T00:18:09.860Z,2.65
2023-05-20T00:20:36.547Z,2.80
2023-05-20T00:23:03.189Z,2.88
2023-05-20T00:25:32.583Z,2.50
2023-05-20T00:27:59.369Z,2.63
2023-05-20T00:30:26.154Z,2.90
2023-05-20T00:32:52.902Z,2.72
2023-05-20T00:35:19.626Z,2.60
2023-05-20T00:37:46.279Z,2.80
2023-05-20T00:40:14.956Z,2.83
2023-05-20T00:42:42.284Z,2.60
2023-05-20T00:45:09.328Z,2.58
2023-05-20T00:47:36.676Z,2.70
2023-05-20T00:50:03.731Z,2.95
2023-05-20T00:52:31.363Z,2.60
2023-05-20T00:54:58.968Z,2.92
2023-05-20T00:57:26.036Z,2.67
2023-05-20T00:59:52.758Z,3.10
2023-05-20T01:02:19.433Z,3.13
2023-05-20T01:04:47.345Z,3.05
2023-05-20T01:07:15.474Z,3.33
2023-05-20T01:09:42.199Z,3.08
2023-05-20T01:12:21.135Z,3.28
2023-05-20T01:15:08.161Z,3.25
2023-05-20T01:17:37.811Z,3.03
2023-05-20T01:20:07.305Z,3.25
2023-05-20T01:22:33.960Z,3.63
2023-05-20T01:25:02.998Z,2.85
2023-05-20T01:27:30.317Z,2.85
2023-05-20T01:29:56.985Z,3.45
2023-05-20T01:32:31.892Z,3.63
2023-05-20T01:34:58.722Z,3.10
2023-05-20T01:37:25.385Z,2.90
2023-05-20T01:39:52.408Z,3.38
2023-05-20T01:42:19.090Z,4.10
2023-05-20T01:44:45.775Z,3.10
2023-05-20T01:47:12.962Z,3.85
2023-05-20T01:49:39.621Z,3.58
2023-05-20T01:52:06.525Z,3.72
2023-05-20T01:54:33.175Z,3.40
2023-05-20T01:57:00.080Z,3.60
2023-05-20T01:59:26.795Z,3.80
2023-05-20T02:01:53.470Z,3.20
2023-05-20T02:04:21.435Z,3.60
2023-05-20T02:06:48.237Z,2.92
2023-05-20T02:09:14.902Z,3.00
2023-05-20T02:11:41.547Z,3.13
2023-05-20T02:14:08.188Z,3.22
2023-05-20T02:16:34.855Z,3.03
2023-05-20T02:19:02.158Z,3.28
2023-05-20T02:21:28.954Z,3.45
2023-05-20T02:23:55.605Z,3.47
2023-05-20T02:26:22.746Z,3.97
2023-05-20T02:28:50.825Z,3.47
2023-05-20T02:31:17.985Z,4.38
2023-05-20T02:33:45.260Z,3.72
2023-05-20T02:36:11.978Z,4.13
2023-05-20T02:38:38.638Z,4.30
2023-05-20T02:41:05.454Z,3.90
2023-05-20T02:43:33.157Z,4.20
2023-05-20T02:45:59.870Z,3.55
2023-05-20T02:48:26.705Z,3.78
2023-05-20T02:50:53.332Z,4.20
2023-05-20T02:53:19.998Z,4.13
2023-05-20T02:55:49.906Z,4.45
2023-05-20T02:58:17.274Z,4.00
2023-05-20T03:00:44.125Z,4.20
2023-05-20T03:03:10.844Z,3.90
2023-05-20T03:05:38.012Z,3.88
2023-05-20T03:08:09.654Z,4.38
2023-05-20T03:10:37.672Z,4.35
2023-05-20T03:13:08.411Z,4.30
2023-05-20T03:15:36.146Z,4.55
2023-05-20T03:18:03.260Z,4.47
2023-05-20T03:20:30.245Z,3.95
2023-05-20T03:22:57.013Z,3.88
2023-05-20T03:25:24.484Z,4.40
2023-05-20T03:27:51.470Z,4.50
2023-05-20T03:30:18.389Z,4.05
2023-05-20T03:32:45.071Z,4.55
2023-05-20T03:35:11.864Z,4.68
2023-05-20T03:37:38.533Z,4.00
2023-05-20T03:40:06.208Z,4.28
2023-05-20T03:42:33.908Z,4.22
2023-05-20T03:45:00.672Z,5.07
2023-05-20T03:47:28.040Z,5.03
2023-05-20T03:49:54.898Z,4.90
2023-05-20T03:52:21.584Z,5.03
2023-05-20T03:54:48.257Z,4.90
2023-05-20T03:57:15.107Z,5.18
2023-05-20T03:59:41.860Z,4.70
2023-05-20T04:02:09.101Z,5.15
2023-05-20T04:04:36.207Z,4.60
2023-05-20T04:07:04.902Z,5.13
2023-05-20T04:09:32.002Z,4.78
2023-05-20T04:11:58.689Z,5.75
2023-05-20T04:14:25.332Z,5.80
2023-05-20T04:16:52.464Z,5.47
2023-05-20T04:19:24.207Z,5.40
2023-05-20T04:21:51.019Z,5.30
2023-05-20T04:24:17.646Z,5.22
2023-05-20T04:26:44.522Z,6.03
2023-05-20T04:29:11.896Z,5.32
2023-05-20T04:31:38.638Z,6.35
2023-05-20T04:34:05.356Z,6.85
2023-05-20T04:36:32.408Z,6.97
2023-05-20T04:38:59.077Z,6.43
2023-05-20T04:41:25.802Z,6.22
2023-05-20T04:43:52.424Z,6.50
2023-05-20T04:46:20.484Z,6.47
2023-05-20T04:48:48.066Z,6.90
2023-05-20T04:51:15.052Z,7.90
2023-05-20T04:53:42.734Z,6.97
2023-05-20T04:56:10.275Z,8.55
2023-05-20T04:58:37.057Z,7.82
2023-05-20T05:01:03.861Z,7.53
2023-05-20T05:03:31.323Z,8.13
2023-05-20T05:05:58.515Z,7.22
2023-05-20T05:08:26.402Z,8.20
2023-05-20T05:10:53.103Z,7.32
2023-05-20T05:13:19.765Z,8.38
2023-05-20T05:15:46.425Z,7.78
2023-05-20T05:18:13.332Z,7.88
2023-05-20T05:20:40.070Z,7.97
2023-05-20T05:23:07.179Z,8.38
2023-05-20T05:25:34.089Z,8.82
2023-05-20T05:28:00.845Z,8.20
2023-05-20T05:30:27.562Z,8.13
2023-05-20T05:32:54.373Z,8.48
2023-05-20T05:35:21.245Z,9.05
2023-05-20T05:37:47.942Z,10.77
2023-05-20T05:40:14.639Z,9.25
2023-05-20T05:42:41.332Z,8.73
2023-05-20T05:45:08.700Z,8.50
2023-05-20T05:47:35.488Z,8.40
2023-05-20T05:50:02.199Z,8.80
2023-05-20T05:52:28.851Z,8.77
2023-05-20T05:54:55.649Z,7.88
2023-05-20T05:57:22.405Z,8.48
2023-05-20T05:59:49.087Z,7.75
2023-05-20T06:02:15.894Z,8.25
2023-05-20T06:04:42.669Z,7.88
2023-05-20T06:07:09.668Z,8.75
2023-05-20T06:09:36.369Z,9.20
2023-05-20T06:12:03.176Z,8.82
2023-05-20T06:14:29.852Z,8.32
2023-05-20T06:16:56.515Z,8.63
2023-05-20T06:19:23.626Z,9.10
2023-05-20T06:21:50.348Z,8.23
2023-05-20T06:24:17.139Z,8.65
2023-05-20T06:26:45.931Z,8.40
2023-05-20T06:29:12.614Z,9.45
2023-05-20T06:31:39.304Z,9.48
2023-05-20T06:34:06.299Z,9.15
2023-05-20T06:36:33.804Z,9.55
2023-05-20T06:39:00.519Z,9.30
2023-05-20T06:41:27.274Z,10.00
2023-05-20T06:43:53.925Z,10.50
2023-05-20T06:46:20.720Z,10.05
2023-05-20T06:48:47.412Z,10.70
2023-05-20T06:51:14.159Z,9.80
2023-05-20T06:53:40.836Z,10.35
2023-05-20T06:56:07.612Z,9.40
2023-05-20T06:58:34.344Z,9.93
2023-05-20T07:01:00.985Z,9.23
2023-05-20T07:03:27.652Z,9.20
2023-05-20T07:05:54.309Z,9.15
2023-05-20T07:08:20.960Z,8.98
2023-05-20T07:10:47.614Z,8.23
2023-05-20T07:13:14.882Z,8.93
2023-05-20T07:15:41.560Z,9.13
2023-05-20T07:18:08.325Z,9.10
2023-05-20T07:20:35.038Z,8.15
2023-05-20T07:23:04.062Z,8.40
2023-05-20T07:25:30.718Z,8.88
2023-05-20T07:27:57.394Z,8.88
2023-05-20T07:30:24.235Z,9.07
2023-05-20T07:32:50.941Z,8.48
2023-05-20T07:35:17.739Z,9.45
2023-05-20T07:37:44.396Z,9.25
2023-05-20T07:40:11.350Z,9.10
2023-05-20T07:42:38.012Z,8.98
2023-05-20T07:45:04.899Z,9.60
2023-05-20T07:47:32.518Z,8.75
2023-05-20T07:49:59.280Z,8.70
2023-05-20T07:52:26.029Z,9.00
2023-05-20T07:54:52.702Z,8.45
2023-05-20T07:57:19.355Z,8.85
2023-05-20T07:59:46.483Z,9.85
2023-05-20T08:02:13.184Z,10.35
2023-05-20T08:04:40.118Z,8.50
2023-05-20T08:07:06.864Z,10.15
2023-05-20T08:09:34.424Z,9.20
2023-05-20T08:12:02.590Z,9.25
2023-05-20T08:14:29.260Z,10.73
2023-05-20T08:16:55.969Z,10.07
2023-05-20T08:19:22.658Z,11.23
2023-05-20T08:21:49.320Z,10.70
2023-05-20T08:24:15.972Z,9.98
2023-05-20T08:26:42.711Z,10.18
2023-05-20T08:29:09.554Z,11.23
2023-05-20T08:31:36.302Z,9.85
2023-05-20T08:34:03.102Z,9.82
2023-05-20T08:36:29.744Z,9.90
2023-05-20T08:38:57.007Z,9.90
2023-05-20T08:41:24.884Z,10.38
2023-05-20T08:43:51.832Z,9.85
2023-05-20T08:46:18.610Z,10.50
2023-05-20T08:48:45.402Z,11.85
2023-05-20T08:51:12.147Z,9.57
2023-05-20T08:53:39.561Z,11.40
2023-05-20T08:56:06.540Z,11.98
2023-05-20T08:58:33.188Z,9.73
2023-05-20T09:01:00.039Z,8.90
2023-05-20T09:03:26.786Z,9.20
2023-05-20T09:05:53.950Z,8.68
2023-05-20T09:08:24.123Z,8.50
2023-05-20T09:10:52.104Z,8.38
2023-05-20T09:13:18.824Z,9.18
2023-05-20T09:15:45.501Z,9.05
2023-05-20T09:18:12.253Z,8.60
2023-05-20T09:20:40.287Z,8.05
2023-05-20T09:23:08.154Z,9.07
2023-05-20T09:25:35.644Z,7.63
2023-05-20T09:28:07.443Z,8.48
2023-05-20T09:30:34.268Z,7.50
2023-05-20T09:33:01.554Z,9.23
2023-05-20T09:35:28.298Z,7.38
2023-05-20T09:37:58.361Z,7.50
2023-05-20T09:40:26.379Z,7.47
2023-05-20T09:42:54.796Z,7.85
2023-05-20T09:45:24.599Z,7.38
2023-05-20T09:47:52.833Z,7.57
2023-05-20T09:50:23.322Z,7.30
2023-05-20T09:52:50.875Z,7.22
2023-05-20T09:55:19.261Z,7.03
2023-05-20T09:57:46.494Z,7.15
2023-05-20T10:00:15.108Z,7.57
2023-05-20T10:02:46.106Z,7.57
2023-05-20T10:05:16.874Z,7.05
2023-05-20T10:08:10.013Z,7.47
2023-05-20T10:10:51.069Z,8.00
2023-05-20T10:13:39.196Z,7.95
2023-05-20T10:16:23.922Z,7.53
2023-05-20T10:19:19.141Z,8.23
2023-05-20T10:21:48.085Z,8.13
2023-05-20T10:24:14.979Z,7.70
2023-05-20T10:26:42.039Z,10.20
2023-05-20T10:29:18.326Z,8.25
2023-05-20T10:31:46.730Z,8.00
2023-05-20T10:34:18.087Z,8.88
2023-05-20T10:36:56.625Z,8.30
2023-05-20T10:39:29.867Z,8.75
2023-05-20T10:42:11.844Z,7.90
2023-05-20T10:44:47.931Z,9.07
2023-05-20T10:49:47.527Z,8.10
2023-05-20T10:52:14.491Z,7.93
2023-05-20T10:54:55.613Z,8.85
2023-05-20T10:57:22.534Z,7.57
2023-05-20T10:59:49.930Z,7.20
2023-05-20T11:02:17.103Z,7.00
2023-05-20T11:04:44.506Z,7.75
2023-05-20T11:07:11.294Z,7.35
2023-05-20T11:09:38.070Z,8.13
2023-05-20T11:12:05.035Z,7.20
2023-05-20T11:14:31.694Z,7.10
2023-05-20T11:16:58.824Z,6.88
2023-05-20T11:19:28.157Z,6.38
2023-05-20T11:21:55.024Z,6.88
2023-05-20T11:24:28.421Z,7.75
2023-05-20T11:26:55.960Z,7.57
2023-05-20T11:29:22.840Z,6.53
2023-05-20T11:31:51.139Z,6.75
2023-05-20T11:34:24.812Z,6.40
2023-05-20T11:36:59.056Z,7.60
2023-05-20T11:39:27.510Z,6.60
2023-05-20T11:41:54.396Z,6.43
2023-05-20T11:44:21.221Z,6.82
2023-05-20T11:46:48.186Z,6.65
2023-05-20T11:49:15.663Z,6.40
2023-05-20T11:51:43.238Z,6.50
2023-05-20T11:54:10.421Z,6.95
2023-05-20T11:56:37.929Z,7.15
2023-05-20T11:59:05.559Z,6.95
2023-05-20T12:01:43.011Z,6.55
2023-05-20T12:04:10.337Z,7.07
2023-05-20T12:06:37.494Z,6.78
2023-05-20T12:09:07.036Z,6.95
2023-05-20T12:11:35.635Z,6.65
2023-05-20T12:14:03.965Z,6.35
2023-05-20T12:16:31.816Z,6.38
2023-05-20T12:18:58.722Z,7.05
2023-05-20T12:21:25.514Z,6.65
2023-05-20T12:23:57.440Z,7.10
2023-05-20T12:26:24.999Z,6.90
2023-05-20T12:28:51.765Z,6.40
2023-05-20T12:31:18.552Z,7.47
2023-05-20T12:33:45.326Z,7.53
2023-05-20T12:36:12.024Z,7.10
2023-05-20T12:38:38.741Z,6.40
2023-05-20T12:41:05.433Z,7.45
2023-05-20T12:43:32.121Z,8.52
2023-05-20T12:45:58.850Z,7.55
2023-05-20T12:48:25.551Z,6.68
2023-05-20T12:50:52.227Z,7.97
2023-05-20T12:53:18.963Z,8.30
2023-05-20T12:55:45.628Z,7.88
2023-05-20T12:58:12.620Z,7.93
2023-05-20T13:00:39.320Z,7.93
2023-05-20T13:03:06.291Z,7.97
2023-05-20T13:05:33.018Z,8.82
2023-05-20T13:07:59.713Z,10.20
2023-05-20T13:10:26.472Z,8.25
2023-05-20T13:12:53.571Z,7.30
2023-05-20T13:15:20.241Z,7.03
2023-05-20T13:17:46.962Z,7.00
2023-05-20T13:20:13.801Z,7.15
2023-05-20T13:22:40.481Z,7.40
2023-05-20T13:25:07.784Z,7.75
2023-05-20T13:27:34.456Z,8.57
2023-05-20T13:30:01.879Z,7.97
2023-05-20T13:32:28.609Z,7.85
2023-05-20T13:34:56.912Z,8.60
2023-05-20T13:37:23.610Z,8.25
2023-05-20T13:39:50.601Z,9.27
2023-05-20T13:42:17.280Z,9.02
2023-05-20T13:44:43.971Z,8.57
2023-05-20T13:47:11.704Z,8.07
2023-05-20T13:49:38.419Z,8.63
2023-05-20T13:52:05.618Z,8.35
2023-05-20T13:54:32.331Z,9.65
2023-05-20T13:56:59.114Z,9.77
2023-05-20T13:59:25.886Z,9.90
2023-05-20T14:01:53.678Z,9.40
2023-05-20T14:04:20.561Z,9.73
2023-05-20T14:06:47.220Z,10.02
2023-05-20T14:09:13.888Z,9.70
2023-05-20T14:11:40.567Z,8.80
2023-05-20T14:14:07.250Z,9.27
2023-05-20T14:16:33.939Z,9.65
2023-05-20T14:19:00.697Z,9.98
2023-05-20T14:21:27.696Z,10.32
2023-05-20T14:23:54.570Z,10.65
2023-05-20T14:26:21.722Z,10.70
2023-05-20T14:28:48.428Z,10.40
2023-05-20T14:31:15.110Z,9.93
2023-05-20T14:33:41.961Z,10.48
2023-05-20T14:36:08.642Z,10.48
2023-05-20T14:38:35.693Z,11.05
2023-05-20T14:41:02.398Z,10.80
2023-05-20T14:43:29.717Z,12.10
2023-05-20T14:45:56.583Z,12.00
2023-05-20T14:48:23.276Z,10.77
2023-05-20T14:50:49.974Z,11.48
2023-05-20T14:53:17.132Z,12.32
2023-05-20T14:55:43.828Z,12.15
2023-05-20T14:58:10.581Z,10.95
2023-05-20T15:00:37.423Z,10.90
2023-05-20T15:03:04.299Z,11.77
2023-05-20T15:05:31.111Z,16.25
2023-05-20T15:07:57.858Z,23.77
2023-05-20T15:10:24.561Z,12.05
2023-05-20T15:12:52.138Z,12.15
2023-05-20T15:15:20.087Z,12.23
2023-05-20T15:17:46.812Z,11.77
2023-05-20T15:20:13.560Z,13.00
2023-05-20T15:22:41.535Z,13.75
2023-05-20T15:25:08.396Z,12.75
2023-05-20T15:27:35.127Z,12.80
2023-05-20T15:30:01.839Z,13.40
2023-05-20T15:32:28.621Z,13.13
2023-05-20T15:34:55.372Z,14.13
2023-05-20T15:37:22.159Z,13.80
2023-05-20T15:39:48.838Z,13.48
2023-05-20T15:42:18.252Z,14.88
2023-05-20T15:44:45.855Z,14.05
2023-05-20T15:47:15.371Z,14.07
2023-05-20T15:49:42.048Z,14.07
2023-05-20T15:52:08.756Z,14.45
2023-05-20T15:54:35.507Z,14.23
2023-05-20T15:57:02.627Z,15.05
2023-05-20T15:59:29.414Z,14.75
2023-05-20T16:01:56.253Z,14.32
2023-05-20T16:04:23.181Z,13.85
2023-05-20T16:06:50.007Z,15.30
2023-05-20T16:09:17.000Z,14.18
2023-05-20T16:11:43.711Z,14.70
2023-05-20T16:14:10.790Z,13.23
2023-05-20T16:16:37.597Z,14.38
2023-05-20T16:19:04.418Z,12.40
2023-05-20T16:21:31.289Z,13.43
2023-05-20T16:23:57.998Z,14.63
2023-05-20T16:26:24.947Z,14.20
2023-05-20T16:28:51.676Z,14.40
2023-05-20T16:31:18.350Z,13.52
2023-05-20T16:33:45.063Z,13.52
2023-05-20T16:36:12.113Z,14.60
2023-05-20T16:38:39.099Z,15.00
2023-05-20T16:41:05.804Z,14.82
2023-05-20T16:43:32.544Z,13.27
2023-05-20T16:45:59.310Z,14.13
2023-05-20T16:48:26.885Z,13.85
2023-05-20T16:50:53.541Z,14.10
2023-05-20T16:53:20.939Z,13.77
2023-05-20T16:55:47.716Z,14.35
2023-05-20T16:58:14.478Z,13.02
2023-05-20T17:00:41.603Z,15.40
2023-05-20T17:03:08.411Z,14.27
2023-05-20T17:05:35.150Z,14.30
2023-05-20T17:08:01.798Z,13.25
2023-05-20T17:10:29.592Z,14.60
2023-05-20T17:12:56.353Z,13.95
2023-05-20T17:15:23.661Z,14.10
2023-05-20T17:17:50.646Z,14.50
2023-05-20T17:20:17.526Z,15.05
2023-05-20T17:22:44.249Z,13.77
2023-05-20T17:25:11.195Z,13.68
2023-05-20T17:27:38.205Z,14.07
2023-05-20T17:30:05.578Z,13.43
2023-05-20T17:32:32.515Z,12.98
2023-05-20T17:34:59.227Z,14.18
2023-05-20T17:37:26.091Z,14.20
2023-05-20T17:39:52.790Z,13.52
2023-05-20T17:42:19.467Z,13.93
2023-05-20T17:44:46.522Z,13.25
2023-05-20T17:47:13.195Z,13.63
2023-05-20T17:49:39.898Z,14.00
2023-05-20T17:52:06.828Z,13.57
2023-05-20T17:54:33.493Z,12.88
2023-05-20T17:57:00.274Z,12.52
2023-05-20T17:59:26.973Z,12.68
2023-05-20T18:01:53.714Z,13.60
2023-05-20T18:04:21.802Z,13.27
2023-05-20T18:06:48.576Z,12.13
2023-05-20T18:09:15.246Z,13.35
2023-05-20T18:11:42.040Z,13.82
2023-05-20T18:14:08.703Z,12.55
2023-05-20T18:16:35.453Z,12.85
2023-05-20T18:19:02.936Z,12.60
2023-05-20T18:21:30.413Z,13.68
2023-05-20T18:23:57.199Z,13.05
2023-05-20T18:26:23.988Z,13.45
2023-05-20T18:28:51.060Z,13.43
2023-05-20T18:31:17.795Z,13.07
2023-05-20T18:33:44.548Z,12.38
2023-05-20T18:36:11.311Z,12.18
2023-05-20T18:38:39.878Z,13.82
2023-05-20T18:41:08.157Z,13.38
2023-05-20T18:43:34.819Z,12.75
2023-05-20T18:46:01.534Z,12.10
2023-05-20T18:48:28.409Z,11.65
2023-05-20T18:50:56.142Z,12.35
2023-05-20T18:53:23.561Z,12.68
2023-05-20T18:55:50.275Z,12.63
2023-05-20T18:58:17.209Z,13.30
2023-05-20T19:00:43.888Z,11.52
2023-05-20T19:03:11.593Z,13.20
2023-05-20T19:05:38.737Z,12.13
2023-05-20T19:08:06.037Z,12.02
2023-05-20T19:10:32.945Z,12.80
2023-05-20T19:12:59.785Z,12.73
2023-05-20T19:15:26.632Z,13.63
2023-05-20T19:17:53.432Z,13.27
2023-05-20T19:20:20.233Z,12.98
2023-05-20T19:22:47.055Z,13.32
2023-05-20T19:25:13.735Z,13.27
2023-05-20T19:27:40.410Z,13.05
2023-05-20T19:30:10.495Z,11.45
2023-05-20T19:32:37.908Z,12.25
2023-05-20T19:35:07.888Z,12.65
2023-05-20T19:37:34.579Z,12.55
2023-05-20T19:40:01.385Z,13.13
2023-05-20T19:42:28.101Z,13.18
2023-05-20T19:44:55.479Z,12.85
2023-05-20T19:47:22.275Z,13.20
2023-05-20T19:49:49.122Z,12.98
2023-05-20T19:52:15.785Z,11.75
2023-05-20T19:54:42.846Z,11.80
2023-05-20T19:57:09.798Z,12.57
2023-05-20T19:59:38.055Z,12.07
2023-05-20T20:02:06.098Z,12.73
2023-05-20T20:04:32.901Z,12.48
2023-05-20T20:07:00.038Z,13.00
2023-05-20T20:09:27.178Z,12.75
2023-05-20T20:11:54.166Z,12.35
2023-05-20T20:14:21.183Z,12.23
2023-05-20T20:16:49.162Z,11.82
2023-05-20T20:19:21.976Z,12.05
2023-05-20T20:21:49.714Z,12.07
2023-05-20T20:24:16.414Z,13.25
2023-05-20T20:26:43.819Z,11.52
2023-05-20T20:29:10.560Z,12.68
2023-05-20T20:31:37.721Z,13.00
2023-05-20T20:34:04.577Z,12.25
2023-05-20T20:36:32.086Z,12.73
2023-05-20T20:38:59.481Z,13.27
2023-05-20T20:41:26.330Z,12.85
2023-05-20T20:43:53.166Z,13.05
2023-05-20T20:46:20.073Z,12.57
2023-05-20T20:48:46.902Z,12.20
2023-05-20T20:51:15.009Z,12.13
2023-05-20T20:53:42.091Z,12.40
2023-05-20T20:56:11.799Z,12.18
2023-05-20T20:58:38.896Z,11.73
2023-05-20T21:01:06.006Z,11.82
2023-05-20T21:03:37.029Z,12.77
2023-05-20T21:06:03.858Z,12.43
2023-05-20T21:08:31.869Z,12.45
2023-05-20T21:10:59.437Z,12.35
2023-05-20T21:13:29.837Z,12.00
2023-05-20T21:15:56.574Z,11.88
2023-05-20T21:18:23.908Z,11.73
2023-05-20T21:20:54.282Z,11.80
2023-05-20T21:23:21.312Z,12.77
2023-05-20T21:25:48.059Z,12.10
2023-05-20T21:28:14.897Z,11.30
2023-05-20T21:30:41.581Z,11.32
2023-05-20T21:33:08.388Z,12.30
2023-05-20T21:35:35.337Z,12.23
2023-05-20T21:38:02.257Z,11.30
2023-05-20T21:40:28.900Z,12.35
2023-05-20T21:42:55.611Z,11.52
2023-05-20T21:45:22.263Z,11.75
2023-05-20T21:47:49.019Z,11.98
2023-05-20T21:50:15.777Z,11.07
2023-05-20T21:52:42.401Z,11.60
2023-05-20T21:55:09.869Z,11.48
2023-05-20T21:57:36.691Z,11.52
2023-05-20T22:00:06.724Z,12.50
2023-05-20T22:02:33.456Z,12.35
2023-05-20T22:05:00.394Z,12.25
2023-05-20T22:07:27.054Z,12.45
2023-05-20T22:09:53.762Z,12.90
2023-05-20T22:12:20.494Z,13.07
2023-05-20T22:14:47.130Z,13.07
2023-05-20T22:17:13.793Z,11.77
2023-05-20T22:19:41.569Z,13.50
2023-05-20T22:22:08.267Z,12.88
2023-05-20T22:24:34.913Z,12.48
2023-05-20T22:27:01.725Z,12.75
2023-05-20T22:29:31.399Z,12.48
2023-05-20T22:31:58.401Z,12.68
2023-05-20T22:34:25.127Z,12.77
2023-05-20T22:36:53.890Z,13.07
2023-05-20T22:39:20.971Z,13.20
2023-05-20T22:41:47.641Z,11.73
2023-05-20T22:44:14.459Z,12.65
2023-05-20T22:46:41.194Z,13.05
2023-05-20T22:49:10.320Z,13.80
2023-05-20T22:51:38.580Z,11.88
2023-05-20T22:54:06.829Z,12.45
2023-05-20T22:56:34.220Z,12.23
2023-05-20T22:59:01.128Z,12.60
2023-05-20T23:01:27.912Z,12.10
2023-05-20T23:03:54.796Z,11.88
2023-05-20T23:06:22.690Z,12.27
2023-05-20T23:08:49.564Z,12.75
2023-05-20T23:11:16.457Z,12.30
2023-05-20T23:13:43.163Z,12.70
2023-05-20T23:16:10.201Z,12.60
2023-05-20T23:18:37.040Z,12.90
2023-05-20T23:21:04.153Z,12.75
2023-05-20T23:23:31.954Z,12.15
2023-05-20T23:25:59.344Z,12.95
2023-05-20T23:28:26.229Z,12.48
2023-05-20T23:30:52.905Z,12.80
2023-05-20T23:33:24.375Z,12.23
2023-05-20T23:35:51.625Z,14.43
2023-05-20T23:38:18.373Z,12.98
2023-05-20T23:40:45.080Z,13.45
2023-05-20T23:43:12.028Z,13.05
2023-05-20T23:45:38.692Z,13.30
2023-05-20T23:48:06.100Z,11.63
2023-05-20T23:50:32.936Z,13.43
2023-05-20T23:52:59.707Z,13.10
2023-05-20T23:55:28.270Z,11.23
2023-05-20T23:57:55.066Z,12.73
